createdAt,value
2022-10-25T00:01:05.822Z,28.30
2022-10-25T00:03:59.683Z,31.45
2022-10-25T00:06:53.719Z,31.73
2022-10-25T00:09:40.719Z,31.50
2022-10-25T00:12:14.797Z,30.52
2022-10-25T00:15:01.722Z,28.48
2022-10-25T00:17:34.798Z,32.25
2022-10-25T00:20:21.716Z,30.63
2022-10-25T00:23:01.706Z,31.98
2022-10-25T00:25:48.712Z,31.73
2022-10-25T00:28:28.719Z,31.10
2022-10-25T00:31:23.752Z,32.20
2022-10-25T00:34:03.722Z,32.95
2022-10-25T00:36:50.727Z,32.00
2022-10-25T00:39:23.815Z,32.70
2022-10-25T00:42:17.707Z,31.92
2022-10-25T00:45:14.730Z,32.30
2022-10-25T00:48:16.727Z,33.47
2022-10-25T00:51:03.747Z,32.03
2022-10-25T00:53:48.715Z,29.73
2022-10-25T00:56:47.762Z,33.92
2022-10-25T00:59:35.737Z,33.75
2022-10-25T01:02:15.861Z,31.73
2022-10-25T01:05:09.746Z,33.70
2022-10-25T01:07:56.739Z,32.38
2022-10-25T01:10:36.802Z,30.88
2022-10-25T01:13:30.738Z,32.40
2022-10-25T01:16:37.876Z,32.33
2022-10-25T01:19:31.732Z,31.65
2022-10-25T01:22:20.801Z,30.98
2022-10-25T01:25:15.752Z,30.48
2022-10-25T01:28:11.738Z,33.70
2022-10-25T01:31:01.860Z,32.03
2022-10-25T01:34:03.756Z,31.48
2022-10-25T01:36:48.824Z,32.10
2022-10-25T01:39:50.738Z,29.65
2022-10-25T01:42:43.769Z,29.35
2022-10-25T01:46:27.750Z,31.90
2022-10-25T01:49:21.757Z,33.25
2022-10-25T01:51:54.835Z,30.05
2022-10-25T01:54:41.834Z,31.67
2022-10-25T01:57:46.108Z,33.72
2022-10-25T02:00:32.886Z,31.35
2022-10-25T02:03:30.803Z,30.65
2022-10-25T02:06:53.757Z,30.58
2022-10-25T02:09:58.851Z,30.17
2022-10-25T02:13:17.825Z,29.35
2022-10-25T02:16:21.763Z,30.17
2022-10-25T02:19:12.804Z,28.17
2022-10-25T02:21:46.897Z,29.48
2022-10-25T02:24:36.805Z,27.80
2022-10-25T02:27:12.913Z,29.63
2022-10-25T02:30:00.806Z,27.45
2022-10-25T02:32:33.870Z,29.15
2022-10-25T02:35:22.841Z,29.08
2022-10-25T02:37:55.873Z,28.35
2022-10-25T02:40:42.805Z,30.83
2022-10-25T02:43:15.875Z,29.33
2022-10-25T02:46:02.814Z,28.67
2022-10-25T02:48:35.946Z,28.23
2022-10-25T02:51:23.826Z,29.48
2022-10-25T02:53:56.944Z,26.38
2022-10-25T02:56:44.807Z,29.48
2022-10-25T02:59:25.769Z,29.27
2022-10-25T03:02:19.825Z,29.58
2022-10-25T03:05:06.808Z,27.75
2022-10-25T03:07:46.818Z,27.70
2022-10-25T03:10:40.803Z,28.95
2022-10-25T03:13:27.822Z,27.90
2022-10-25T03:16:07.840Z,28.30
2022-10-25T03:19:01.830Z,27.88
2022-10-25T03:21:48.810Z,29.75
2022-10-25T03:24:21.874Z,27.85
2022-10-25T03:27:08.817Z,27.98
2022-10-25T03:29:41.872Z,29.00
2022-10-25T03:32:28.822Z,26.77
2022-10-25T03:35:01.877Z,27.75
2022-10-25T03:37:49.062Z,27.42
2022-10-25T03:40:22.935Z,26.38
2022-10-25T03:43:11.011Z,27.80
2022-10-25T03:45:51.858Z,28.58
2022-10-25T03:48:45.856Z,28.10
2022-10-25T03:51:32.794Z,26.67
2022-10-25T03:54:05.959Z,26.50
2022-10-25T03:56:52.827Z,25.83
2022-10-25T03:59:25.953Z,25.52
2022-10-25T04:02:12.899Z,25.50
2022-10-25T04:04:45.867Z,25.67
2022-10-25T04:07:32.827Z,24.67
2022-10-25T04:10:05.949Z,26.50
2022-10-25T04:12:54.724Z,27.23
2022-10-25T04:15:36.820Z,25.55
2022-10-25T04:18:30.887Z,25.67
2022-10-25T04:21:19.857Z,22.92
2022-10-25T04:24:03.432Z,24.40
2022-10-25T04:26:57.863Z,24.63
2022-10-25T04:29:51.860Z,24.58
2022-10-25T04:32:38.881Z,23.25
2022-10-25T04:35:12.791Z,24.52
2022-10-25T04:38:03.861Z,25.30
2022-10-25T04:40:36.925Z,25.15
2022-10-25T04:43:32.832Z,23.50
2022-10-25T04:46:20.887Z,24.50
2022-10-25T04:48:53.993Z,23.42
2022-10-25T04:51:40.910Z,21.85
2022-10-25T04:54:14.927Z,24.77
2022-10-25T04:57:03.870Z,22.85
2022-10-25T04:59:40.040Z,22.05
2022-10-25T05:02:26.938Z,21.58
2022-10-25T05:04:59.990Z,21.38
2022-10-25T05:07:46.880Z,21.95
2022-10-25T05:10:20.056Z,23.85
2022-10-25T05:13:06.881Z,20.52
2022-10-25T05:15:39.957Z,21.15
2022-10-25T05:18:26.890Z,20.23
2022-10-25T05:21:07.954Z,21.80
2022-10-25T05:23:58.962Z,20.05
2022-10-25T05:26:41.860Z,20.73
2022-10-25T05:29:35.868Z,18.98
2022-10-25T05:32:22.883Z,19.58
2022-10-25T05:35:02.876Z,21.42
2022-10-25T05:37:49.879Z,20.98
2022-10-25T05:40:29.861Z,22.35
2022-10-25T05:43:16.943Z,21.27
2022-10-25T05:45:49.999Z,20.60
2022-10-25T05:48:36.885Z,19.02
2022-10-25T05:51:37.876Z,23.08
2022-10-25T05:54:31.861Z,19.80
2022-10-25T05:57:18.935Z,20.75
2022-10-25T05:59:51.956Z,22.70
2022-10-25T06:02:38.925Z,18.95
2022-10-25T06:05:21.588Z,21.77
2022-10-25T06:08:14.883Z,26.05
2022-10-25T06:11:08.930Z,25.48
2022-10-25T06:13:55.870Z,23.73
2022-10-25T06:16:35.894Z,26.02
2022-10-25T06:19:29.881Z,30.50
2022-10-25T06:22:23.959Z,24.50
2022-10-25T06:25:19.894Z,24.20
2022-10-25T06:28:06.932Z,23.75
2022-10-25T06:30:42.311Z,23.92
2022-10-25T06:33:28.924Z,22.98
2022-10-25T06:36:07.540Z,24.67
2022-10-25T06:38:54.932Z,25.30
2022-10-25T06:41:40.933Z,22.92
2022-10-25T06:44:34.931Z,24.92
2022-10-25T06:47:21.891Z,24.50
2022-10-25T06:50:03.087Z,22.63
2022-10-25T06:52:56.930Z,27.52
2022-10-25T06:55:52.938Z,25.88
2022-10-25T06:58:40.938Z,23.05
2022-10-25T07:01:22.219Z,25.20
2022-10-25T07:04:09.959Z,26.25
2022-10-25T07:06:52.786Z,23.65
2022-10-25T07:09:48.942Z,24.67
2022-10-25T07:12:44.940Z,24.58
2022-10-25T07:15:31.957Z,22.55
2022-10-25T07:18:05.008Z,23.27
2022-10-25T07:21:00.038Z,23.73
2022-10-25T07:23:42.002Z,23.33
2022-10-25T07:26:36.960Z,23.25
2022-10-25T07:29:11.018Z,24.98
2022-10-25T07:31:57.963Z,24.55
2022-10-25T07:34:32.102Z,23.52
2022-10-25T07:37:18.937Z,21.35
2022-10-25T07:39:52.055Z,23.45
2022-10-25T07:42:45.963Z,21.25
2022-10-25T07:45:32.937Z,21.55
2022-10-25T07:48:08.067Z,22.65
2022-10-25T07:50:54.977Z,20.23
2022-10-25T07:53:35.956Z,21.02
2022-10-25T07:56:32.981Z,21.65
2022-10-25T07:59:29.955Z,22.33
2022-10-25T08:02:28.007Z,20.75
2022-10-25T08:05:21.997Z,22.25
2022-10-25T08:08:10.184Z,21.75
2022-10-25T08:10:43.060Z,21.23
2022-10-25T08:13:31.992Z,23.27
2022-10-25T08:16:14.017Z,24.83
2022-10-25T08:19:03.543Z,20.98
2022-10-25T08:21:38.050Z,21.48
2022-10-25T08:24:24.984Z,23.83
2022-10-25T08:27:06.008Z,22.48
2022-10-25T08:29:54.005Z,19.92
2022-10-25T08:32:35.002Z,20.40
2022-10-25T08:35:23.966Z,23.35
2022-10-25T08:38:05.964Z,23.48
2022-10-25T08:41:08.007Z,21.42
2022-10-25T08:44:21.971Z,21.73
2022-10-25T08:47:22.997Z,20.85
2022-10-25T08:50:26.999Z,22.42
2022-10-25T08:53:32.999Z,20.25
2022-10-25T08:56:25.717Z,19.05
2022-10-25T08:59:09.075Z,21.23
2022-10-25T09:02:04.121Z,23.67
2022-10-25T09:04:40.049Z,21.23
2022-10-25T09:07:49.439Z,21.38
2022-10-25T09:11:14.013Z,20.30
2022-10-25T09:14:18.989Z,20.40
2022-10-25T09:17:01.100Z,20.92
2022-10-25T09:20:04.028Z,17.65
2022-10-25T09:22:52.051Z,17.27
2022-10-25T09:25:47.999Z,17.83
2022-10-25T09:28:34.984Z,16.75
2022-10-25T09:31:33.002Z,18.77
2022-10-25T09:34:24.011Z,18.13
2022-10-25T09:37:05.083Z,17.67
2022-10-25T09:39:57.999Z,16.50
2022-10-25T09:42:41.061Z,15.63
2022-10-25T09:45:54.010Z,17.50
2022-10-25T09:48:46.570Z,17.25
2022-10-25T09:51:42.040Z,16.17
2022-10-25T09:54:27.901Z,15.32
2022-10-25T09:57:15.021Z,16.48
2022-10-25T09:59:50.090Z,14.68
2022-10-25T10:02:37.171Z,16.35
2022-10-25T10:05:10.077Z,17.77
2022-10-25T10:07:58.016Z,16.48
2022-10-25T10:10:44.334Z,15.23
2022-10-25T10:13:49.008Z,15.85
2022-10-25T10:16:39.365Z,16.00
2022-10-25T10:19:30.338Z,17.27
2022-10-25T10:22:14.219Z,18.00
2022-10-25T10:25:07.006Z,16.45
2022-10-25T10:27:41.074Z,16.67
2022-10-25T10:30:35.040Z,17.20
2022-10-25T10:33:09.635Z,16.13
2022-10-25T10:36:00.048Z,17.40
2022-10-25T10:38:36.103Z,16.25
2022-10-25T10:41:38.333Z,17.73
2022-10-25T10:44:37.013Z,17.40
2022-10-25T10:47:28.051Z,16.48
2022-10-25T10:50:01.091Z,16.02
2022-10-25T10:52:54.029Z,18.15
2022-10-25T10:55:45.023Z,16.83
2022-10-25T10:58:43.033Z,14.90
2022-10-25T11:01:40.201Z,16.88
2022-10-25T11:04:21.858Z,18.20
2022-10-25T11:07:44.797Z,16.50
2022-10-25T11:10:24.161Z,16.08
2022-10-25T11:13:25.011Z,18.17
2022-10-25T11:16:16.198Z,18.08
2022-10-25T11:19:26.052Z,16.17
2022-10-25T11:22:32.865Z,19.60
2022-10-25T11:25:27.045Z,19.95
2022-10-25T11:28:26.047Z,17.27
2022-10-25T11:31:24.064Z,18.45
2022-10-25T11:34:51.060Z,19.55
2022-10-25T11:37:53.041Z,16.67
2022-10-25T11:40:39.135Z,19.08
2022-10-25T11:43:42.053Z,18.13
2022-10-25T11:46:57.036Z,20.50
2022-10-25T11:49:39.138Z,20.38
2022-10-25T11:52:50.138Z,19.13
2022-10-25T11:55:34.175Z,16.52
2022-10-25T11:58:36.072Z,17.40
2022-10-25T12:01:16.167Z,20.23
2022-10-25T12:04:30.695Z,17.83
2022-10-25T12:07:15.062Z,18.33
2022-10-25T12:10:30.073Z,19.20
2022-10-25T12:13:44.108Z,17.23
2022-10-25T12:16:39.075Z,18.65
2022-10-25T12:19:31.048Z,17.48
2022-10-25T12:22:13.150Z,17.77
2022-10-25T12:25:07.050Z,19.70
2022-10-25T12:27:43.139Z,18.92
2022-10-25T12:33:27.071Z,20.25
2022-10-25T12:36:08.179Z,16.98
2022-10-25T12:38:55.070Z,15.70
2022-10-25T12:41:31.141Z,15.88
2022-10-25T12:44:45.065Z,16.58
2022-10-25T12:48:01.084Z,18.45
2022-10-25T12:51:23.079Z,19.83
2022-10-25T12:54:31.094Z,17.25
2022-10-25T12:57:14.208Z,17.67
2022-10-25T13:03:17.013Z,18.27
2022-10-25T13:06:08.118Z,17.85
2022-10-25T13:08:49.103Z,18.75
2022-10-25T13:11:22.156Z,17.15
2022-10-25T13:14:10.096Z,17.80
2022-10-25T13:16:43.198Z,18.65
2022-10-25T13:22:46.816Z,15.95
2022-10-25T13:25:39.125Z,16.38
2022-10-25T13:28:21.180Z,17.52
2022-10-25T13:31:42.130Z,17.20
2022-10-25T13:34:21.162Z,17.40
2022-10-25T13:37:10.141Z,17.40
2022-10-25T13:39:52.181Z,17.15
2022-10-25T13:42:44.318Z,16.10
2022-10-25T13:45:31.343Z,17.88
2022-10-25T13:48:20.163Z,17.30
2022-10-25T13:51:01.246Z,18.52
2022-10-25T13:53:52.112Z,15.98
2022-10-25T13:56:28.175Z,16.83
2022-10-25T13:59:42.121Z,17.73
2022-10-25T14:02:34.121Z,17.02
2022-10-25T14:05:28.121Z,17.77
2022-10-25T14:08:35.118Z,17.02
2022-10-25T14:11:30.123Z,17.17
2022-10-25T14:14:18.199Z,18.55
2022-10-25T14:17:30.140Z,16.30
2022-10-25T14:20:07.242Z,17.35
2022-10-25T14:23:00.120Z,18.15
2022-10-25T14:25:55.246Z,17.42
2022-10-25T14:28:42.120Z,17.63
2022-10-25T14:31:20.327Z,16.33
2022-10-25T14:34:07.154Z,17.38
2022-10-25T14:36:48.159Z,18.13
2022-10-25T14:39:43.139Z,19.25
2022-10-25T14:42:30.121Z,17.73
2022-10-25T14:45:03.216Z,18.80
2022-10-25T14:47:50.143Z,18.25
2022-10-25T14:50:32.222Z,17.35
2022-10-25T14:53:22.147Z,19.13
2022-10-25T14:56:06.263Z,19.33
2022-10-25T14:58:53.163Z,18.20
2022-10-25T15:01:35.263Z,18.48
2022-10-25T15:04:22.165Z,17.95
2022-10-25T15:07:02.142Z,17.83
2022-10-25T15:10:07.164Z,19.05
2022-10-25T15:13:01.159Z,21.58
2022-10-25T15:15:44.166Z,18.38
2022-10-25T15:18:34.166Z,19.33
2022-10-25T15:21:29.158Z,19.17
2022-10-25T15:24:27.156Z,19.55
2022-10-25T15:27:48.145Z,20.48
2022-10-25T15:30:57.163Z,18.85
2022-10-25T15:33:52.144Z,19.17
2022-10-25T15:36:40.160Z,19.10
2022-10-25T15:39:33.038Z,19.40
2022-10-25T15:42:20.187Z,20.90
2022-10-25T15:44:53.251Z,18.27
2022-10-25T15:47:42.149Z,18.52
2022-10-25T15:50:25.917Z,20.13
2022-10-25T15:53:12.180Z,19.92
2022-10-25T15:55:52.218Z,19.48
2022-10-25T15:58:46.181Z,19.05
2022-10-25T16:01:33.339Z,21.05
2022-10-25T16:04:06.258Z,22.63
2022-10-25T16:06:53.179Z,20.35
2022-10-25T16:09:26.256Z,20.40
2022-10-25T16:12:15.177Z,18.92
2022-10-25T16:14:48.264Z,20.92
2022-10-25T16:17:42.176Z,22.60
2022-10-25T16:20:45.201Z,23.85
2022-10-25T16:23:39.195Z,22.92
2022-10-25T16:26:42.187Z,25.05
2022-10-25T16:29:22.363Z,24.88
2022-10-25T16:32:10.189Z,25.13
2022-10-25T16:34:48.322Z,26.40
2022-10-25T16:37:28.202Z,24.65
2022-10-25T16:40:08.216Z,25.95
2022-10-25T16:42:52.207Z,25.98
2022-10-25T16:45:50.187Z,25.20
2022-10-25T16:48:45.204Z,25.52
2022-10-25T16:51:32.206Z,24.67
2022-10-25T16:54:05.286Z,24.27
2022-10-25T16:56:52.210Z,24.73
2022-10-25T16:59:25.275Z,26.10
2022-10-25T17:02:13.290Z,27.20
2022-10-25T17:04:46.336Z,27.10
2022-10-25T17:07:33.260Z,26.70
2022-10-25T17:10:06.291Z,26.00
2022-10-25T17:12:55.220Z,24.95
2022-10-25T17:15:35.202Z,24.98
2022-10-25T17:18:29.201Z,27.08
2022-10-25T17:21:19.209Z,28.42
2022-10-25T17:23:52.290Z,36.47
2022-10-25T17:26:39.234Z,41.50
2022-10-25T17:29:12.306Z,42.00
2022-10-25T17:31:59.219Z,34.50
2022-10-25T17:34:39.228Z,27.88
2022-10-25T17:37:33.221Z,27.85
2022-10-25T17:40:20.221Z,27.40
2022-10-25T17:42:53.527Z,27.40
2022-10-25T17:45:40.252Z,26.83
2022-10-25T17:48:13.341Z,26.25
2022-10-25T17:51:00.216Z,25.67
2022-10-25T17:53:33.342Z,27.50
2022-10-25T17:56:24.344Z,26.60
2022-10-25T17:59:08.259Z,27.40
2022-10-25T18:02:02.319Z,27.13
2022-10-25T18:05:19.078Z,25.73
2022-10-25T18:07:56.251Z,27.73
2022-10-25T18:10:43.227Z,28.88
2022-10-25T18:13:37.264Z,30.05
2022-10-25T18:16:33.247Z,28.67
2022-10-25T18:19:28.248Z,27.83
2022-10-25T18:22:22.230Z,30.02
2022-10-25T18:25:09.268Z,29.17
2022-10-25T18:27:49.639Z,31.63
2022-10-25T18:30:43.268Z,32.92
2022-10-25T18:33:31.266Z,36.67
2022-10-25T18:36:07.307Z,31.55
2022-10-25T18:39:01.259Z,30.67
2022-10-25T18:41:37.570Z,31.17
2022-10-25T18:44:24.284Z,31.33
2022-10-25T18:46:57.324Z,37.72
2022-10-25T18:49:44.242Z,35.88
2022-10-25T18:52:17.402Z,35.03
2022-10-25T18:55:04.253Z,34.20
2022-10-25T18:57:37.349Z,32.97
2022-10-25T19:00:24.265Z,31.58
2022-10-25T19:02:57.406Z,26.95
2022-10-25T19:05:46.265Z,25.70
2022-10-25T19:08:19.337Z,24.63
2022-10-25T19:11:13.276Z,28.02
2022-10-25T19:13:50.422Z,27.35
2022-10-25T19:16:38.295Z,27.35
2022-10-25T19:19:14.587Z,27.55
2022-10-25T19:22:01.265Z,29.17
2022-10-25T19:24:42.273Z,30.38
2022-10-25T19:27:29.278Z,31.00
2022-10-25T19:30:09.293Z,31.85
2022-10-25T19:33:03.286Z,30.63
2022-10-25T19:35:50.293Z,29.98
2022-10-25T19:38:23.356Z,28.65
2022-10-25T19:41:12.277Z,30.67
2022-10-25T19:43:45.398Z,28.42
2022-10-25T19:46:32.286Z,28.38
2022-10-25T19:49:05.371Z,32.28
2022-10-25T19:51:52.288Z,30.80
2022-10-25T19:54:32.268Z,31.65
2022-10-25T19:57:19.308Z,33.40
2022-10-25T19:59:59.286Z,32.13
2022-10-25T20:02:53.295Z,29.98
2022-10-25T20:05:40.298Z,30.33
2022-10-25T20:08:13.353Z,29.88
2022-10-25T20:11:00.450Z,27.23
2022-10-25T20:13:33.356Z,31.48
2022-10-25T20:16:21.304Z,35.28
2022-10-25T20:18:54.374Z,30.65
2022-10-25T20:21:43.330Z,34.53
2022-10-25T20:24:16.401Z,31.77
2022-10-25T20:27:03.288Z,31.58
2022-10-25T20:29:36.371Z,29.23
2022-10-25T20:32:23.301Z,28.88
2022-10-25T20:34:56.487Z,31.98
2022-10-25T20:37:43.305Z,32.00
2022-10-25T20:40:16.369Z,33.45
2022-10-25T20:43:04.306Z,31.00
2022-10-25T20:45:37.458Z,30.13
2022-10-25T20:48:24.311Z,27.98
2022-10-25T20:51:06.966Z,27.25
2022-10-25T20:53:55.300Z,30.70
2022-10-25T20:56:29.393Z,31.35
2022-10-25T20:59:16.308Z,30.20
2022-10-25T21:01:49.502Z,28.25
2022-10-25T21:04:42.607Z,24.55
2022-10-25T21:07:26.711Z,25.85
2022-10-25T21:10:13.312Z,26.17
2022-10-25T21:12:46.376Z,26.98
2022-10-25T21:15:33.326Z,26.15
2022-10-25T21:18:06.408Z,26.63
2022-10-25T21:20:55.337Z,24.90
2022-10-25T21:23:35.334Z,26.55
2022-10-25T21:26:29.327Z,27.00
2022-10-25T21:29:16.339Z,26.60
2022-10-25T21:31:56.323Z,24.70
2022-10-25T21:34:43.338Z,25.27
2022-10-25T21:37:16.528Z,24.27
2022-10-25T21:40:03.334Z,23.45
2022-10-25T21:42:49.346Z,21.95
2022-10-25T21:45:36.333Z,24.08
2022-10-25T21:48:09.422Z,24.08
2022-10-25T21:51:01.347Z,23.63
2022-10-25T21:53:41.414Z,23.50
2022-10-25T21:56:36.331Z,22.85
2022-10-25T21:59:23.364Z,24.48
2022-10-25T22:02:03.547Z,24.15
2022-10-25T22:04:57.342Z,22.92
2022-10-25T22:07:44.355Z,23.27
2022-10-25T22:10:17.413Z,24.08
2022-10-25T22:13:04.366Z,23.25
2022-10-25T22:15:37.426Z,24.42
2022-10-25T22:18:24.357Z,25.65
2022-10-25T22:21:05.450Z,23.90
2022-10-25T22:23:52.350Z,23.92
2022-10-25T22:26:27.498Z,23.13
2022-10-25T22:29:17.363Z,22.73
2022-10-25T22:31:50.445Z,23.52
2022-10-25T22:34:37.370Z,22.83
2022-10-25T22:37:17.361Z,23.48
2022-10-25T22:40:04.376Z,23.25
2022-10-25T22:42:44.375Z,23.08
2022-10-25T22:45:38.391Z,23.45
2022-10-25T22:48:25.375Z,23.95
2022-10-25T22:51:00.439Z,21.95
2022-10-25T22:53:48.378Z,21.60
2022-10-25T22:56:29.501Z,23.83
2022-10-25T22:59:18.368Z,21.40
2022-10-25T23:01:51.441Z,21.33
2022-10-25T23:04:38.390Z,21.75
2022-10-25T23:07:11.446Z,22.75
2022-10-25T23:09:58.354Z,23.65
2022-10-25T23:12:38.387Z,22.52
2022-10-25T23:15:32.383Z,22.70
2022-10-25T23:18:19.390Z,21.33
2022-10-25T23:20:56.533Z,21.95
2022-10-25T23:23:46.399Z,22.35
2022-10-25T23:26:32.476Z,22.80
2022-10-25T23:29:19.382Z,22.10
2022-10-25T23:31:52.482Z,22.60
2022-10-25T23:34:39.390Z,22.48
2022-10-25T23:37:12.597Z,23.08
2022-10-25T23:39:59.394Z,22.67
2022-10-25T23:42:32.532Z,22.55
2022-10-25T23:45:26.393Z,22.95
2022-10-25T23:48:13.389Z,22.20
2022-10-25T23:50:53.464Z,22.25
2022-10-25T23:53:48.398Z,21.83
2022-10-25T23:56:35.419Z,21.40
2022-10-25T23:59:15.453Z,22.40
